KGLR

Gaylord Regional Airport

Gaylord, Michigan, USA
METAR KGLR 221453Z AUTO 04008G14KT 10SM CLR 16/06 A3001 RMK AO2 SLP166 T01560061 52002
Observed Flight Rules
May-22 @ 14:53 UTC (an hour ago) Visual Flight Rules
Wind Visibility Clouds
40° at 8 knots
 Gusting to 14 knots
10 miles
  • Clear skies
Temperatures Readings
Current 16°C / 61°F
Dewpoint 6°C / 43°F
Humidity 52%
Altimeter 30.01" Hg
Pressure 1016.6 hPa
Elevation 407
METAR KGLR 221453Z AUTO 04008G14KT 10SM CLR 16/06 A3001 RMK AO2 SLP166 T01560061 52002
Observed Flight Rules
May-22 @ 14:53 UTC
(an hour ago)
VFR
Wind Visibility
40° at 8 knots
 Gusting to 14 knots
10 miles
Clouds
  • Clear skies
Temperature Dewpoint
16°C / 61°F 6°C / 43°F
Humidity Altimeter Pressure
52% 30.01" Hg 1016.6 hPa